Time,TemperatureF,DewpointF,PressureIn,WindDirection,WindDirectionDegrees,WindSpeedMPH,WindSpeedGustMPH,Humidity,HourlyPrecipIn,Conditions,Clouds,dailyrainin,SoftwareType,DateUTC
2013-08-28 00:00:00,69.1,68.2,29.85,NE,44,2.0,8.0,97,0.00,,,0.00,Wunderground v.1.15,2013-08-28 05:00:00,
2013-08-28 00:05:00,69.1,68.2,29.85,NE,37,2.0,8.0,97,0.00,,,0.00,Wunderground v.1.15,2013-08-28 05:05:00,
2013-08-28 00:10:00,69.2,68.3,29.85,NNE,33,2.0,8.0,97,0.00,,,0.00,Wunderground v.1.15,2013-08-28 05:10:00,
2013-08-28 00:15:00,69.4,68.5,29.85,NNE,19,2.0,8.0,97,0.00,,,0.00,Wunderground v.1.15,2013-08-28 05:15:00,
2013-08-28 00:20:00,69.4,68.5,29.85,NNE,19,2.0,8.0,97,0.00,,,0.00,Wunderground v.1.15,2013-08-28 05:20:00,
2013-08-28 00:25:00,69.5,68.6,29.85,NE,39,2.0,8.0,97,0.00,,,0.00,Wunderground v.1.15,2013-08-28 05:25:00,
2013-08-28 00:30:00,69.8,68.9,29.85,NNE,20,2.0,8.0,97,0.00,,,0.00,Wunderground v.1.15,2013-08-28 05:30:00,
2013-08-28 00:40:00,70.1,69.2,29.85,NNE,26,2.0,8.0,97,0.00,,,0.00,Wunderground v.1.15,2013-08-28 05:40:00,
2013-08-28 00:45:00,70.2,69.3,29.85,North,5,2.0,8.0,97,0.00,,,0.00,Wunderground v.1.15,2013-08-28 05:45:00,
2013-08-28 00:50:00,70.3,69.4,29.86,NE,42,3.0,8.0,97,0.00,,,0.00,Wunderground v.1.15,2013-08-28 05:50:00,
2013-08-28 00:55:00,70.4,69.5,29.86,North,9,2.0,8.0,97,0.00,,,0.00,Wunderground v.1.15,2013-08-28 05:55:00,
2013-08-28 01:00:00,70.4,69.5,29.86,NE,49,2.0,8.0,97,0.00,,,0.00,Wunderground v.1.15,2013-08-28 06:00:00,
2013-08-28 01:05:00,70.4,69.5,29.85,NNW,344,3.0,8.0,97,0.00,,,0.00,Wunderground v.1.15,2013-08-28 06:05:00,
2013-08-28 01:10:00,70.5,69.6,29.86,NNW,344,3.0,8.0,97,0.00,,,0.00,Wunderground v.1.15,2013-08-28 06:10:00,
2013-08-28 01:15:00,70.5,69.6,29.85,North,360,3.0,8.0,97,0.00,,,0.00,Wunderground v.1.15,2013-08-28 06:15:00,
2013-08-28 01:20:00,70.5,69.6,29.86,North,9,3.0,8.0,97,0.00,,,0.00,Wunderground v.1.15,2013-08-28 06:20:00,
2013-08-28 01:25:00,70.5,69.6,29.86,NNW,346,3.0,8.0,97,0.00,,,0.00,Wunderground v.1.15,2013-08-28 06:25:00,
2013-08-28 01:30:00,70.5,69.6,29.85,North,355,3.0,8.0,97,0.00,,,0.00,Wunderground v.1.15,2013-08-28 06:30:00,
2013-08-28 01:35:00,70.5,69.6,29.86,NNW,346,3.0,8.0,97,0.00,,,0.00,Wunderground v.1.15,2013-08-28 06:35:00,
2013-08-28 01:40:00,70.5,69.6,29.86,NNE,13,2.0,8.0,97,0.00,,,0.00,Wunderground v.1.15,2013-08-28 06:40:00,
2013-08-28 01:45:00,70.5,69.6,29.85,North,9,1.0,8.0,97,0.00,,,0.00,Wunderground v.1.15,2013-08-28 06:45:00,
2013-08-28 01:50:00,70.6,69.7,29.85,NNW,338,1.0,8.0,97,0.00,,,0.00,Wunderground v.1.15,2013-08-28 06:50:00,
2013-08-28 01:55:00,70.6,69.7,29.85,NE,40,2.0,8.0,97,0.00,,,0.00,Wunderground v.1.15,2013-08-28 06:55:00,
2013-08-28 02:00:00,70.6,69.7,29.85,NNW,338,2.0,2.0,97,0.00,,,0.00,Wunderground v.1.15,2013-08-28 07:00:00,
2013-08-28 02:05:00,70.6,69.7,29.85,NNW,338,1.0,8.0,97,0.00,,,0.00,Wunderground v.1.15,2013-08-28 07:05:00,
2013-08-28 02:10:00,70.6,69.7,29.85,NNW,331,1.0,8.0,97,0.00,,,0.00,Wunderground v.1.15,2013-08-28 07:10:00,
2013-08-28 02:15:00,70.6,69.7,29.85,NNE,12,2.0,8.0,97,0.00,,,0.00,Wunderground v.1.15,2013-08-28 07:15:00,
2013-08-28 02:20:00,70.5,69.6,29.85,North,10,2.0,8.0,97,0.00,,,0.00,Wunderground v.1.15,2013-08-28 07:20:00,
2013-08-28 02:25:00,70.5,69.6,29.85,NNE,23,3.0,8.0,97,0.00,,,0.00,Wunderground v.1.15,2013-08-28 07:25:00,
2013-08-28 02:30:00,70.5,69.6,29.85,NNE,26,3.0,3.0,97,0.00,,,0.00,Wunderground v.1.15,2013-08-28 07:30:00,
2013-08-28 02:35:00,70.5,69.6,29.85,NNE,32,3.0,8.0,97,0.00,,,0.00,Wunderground v.1.15,2013-08-28 07:35:00,
2013-08-28 02:40:00,70.5,69.9,29.85,NE,38,2.0,8.0,98,0.00,,,0.00,Wunderground v.1.15,2013-08-28 07:40:00,
2013-08-28 02:45:00,70.5,69.9,29.85,NNE,28,3.0,8.0,98,0.00,,,0.00,Wunderground v.1.15,2013-08-28 07:45:00,
2013-08-28 02:50:00,70.5,69.6,29.85,NE,34,2.0,8.0,97,0.00,,,0.00,Wunderground v.1.15,2013-08-28 07:50:00,
2013-08-28 02:55:00,70.4,69.8,29.85,NNE,13,2.0,8.0,98,0.00,,,0.00,Wunderground v.1.15,2013-08-28 07:55:00,
2013-08-28 03:00:00,70.5,69.9,29.86,NE,34,2.0,8.0,98,0.00,,,0.00,Wunderground v.1.15,2013-08-28 08:00:00,
2013-08-28 03:05:00,70.5,69.9,29.86,NNE,25,2.0,8.0,98,0.00,,,0.00,Wunderground v.1.15,2013-08-28 08:05:00,
2013-08-28 03:10:00,70.4,69.5,29.86,NNW,348,2.0,8.0,97,0.00,,,0.00,Wunderground v.1.15,2013-08-28 08:10:00,
2013-08-28 03:15:00,70.3,69.4,29.86,NE,36,2.0,8.0,97,0.00,,,0.00,Wunderground v.1.15,2013-08-28 08:15:00,
2013-08-28 03:20:00,70.3,69.4,29.86,NNW,340,3.0,8.0,97,0.00,,,0.00,Wunderground v.1.15,2013-08-28 08:20:00,
2013-08-28 03:25:00,70.3,69.4,29.86,North,9,3.0,8.0,97,0.00,,,0.00,Wunderground v.1.15,2013-08-28 08:25:00,
2013-08-28 03:30:00,70.3,69.4,29.87,North,360,3.0,3.0,97,0.00,,,0.00,Wunderground v.1.15,2013-08-28 08:30:00,
2013-08-28 03:35:00,70.4,69.8,29.88,NNE,17,2.0,8.0,98,0.00,,,0.00,Wunderground v.1.15,2013-08-28 08:35:00,
2013-08-28 03:40:00,70.4,69.8,29.88,North,5,2.0,8.0,98,0.00,,,0.00,Wunderground v.1.15,2013-08-28 08:40:00,
2013-08-28 03:45:00,70.4,69.8,29.88,North,355,2.0,8.0,98,0.00,,,0.00,Wunderground v.1.15,2013-08-28 08:45:00,
2013-08-28 03:50:00,70.4,69.8,29.88,NNE,12,2.0,8.0,98,0.00,,,0.00,Wunderground v.1.15,2013-08-28 08:50:00,
2013-08-28 03:55:00,70.5,69.9,29.88,NNE,16,2.0,8.0,98,0.00,,,0.00,Wunderground v.1.15,2013-08-28 08:55:00,
2013-08-28 04:00:00,70.4,69.8,29.88,North,5,2.0,2.0,98,0.00,,,0.00,Wunderground v.1.15,2013-08-28 09:00:00,
2013-08-28 04:05:00,70.5,69.9,29.88,NNE,27,3.0,3.0,98,0.00,,,0.00,Wunderground v.1.15,2013-08-28 09:05:00,
2013-08-28 04:10:00,70.4,69.8,29.88,NNE,32,3.0,3.0,98,0.00,,,0.00,Wunderground v.1.15,2013-08-28 09:10:00,
2013-08-28 04:15:00,70.5,69.9,29.89,NNE,32,3.0,8.0,98,0.00,,,0.00,Wunderground v.1.15,2013-08-28 09:15:00,
2013-08-28 04:25:00,70.5,69.9,29.89,North,355,3.0,8.0,98,0.00,,,0.00,Wunderground v.1.15,2013-08-28 09:25:00,
2013-08-28 04:30:00,70.5,69.9,29.89,NNW,346,3.0,8.0,98,0.00,,,0.00,Wunderground v.1.15,2013-08-28 09:30:00,
2013-08-28 04:35:00,70.5,69.9,29.89,NNE,25,3.0,8.0,98,0.00,,,0.00,Wunderground v.1.15,2013-08-28 09:35:00,
2013-08-28 04:40:00,70.5,69.9,29.90,NNE,28,3.0,3.0,98,0.00,,,0.00,Wunderground v.1.15,2013-08-28 09:40:00,
2013-08-28 04:45:00,70.6,70.0,29.89,NE,39,3.0,4.0,98,0.00,,,0.00,Wunderground v.1.15,2013-08-28 09:45:00,
2013-08-28 04:50:00,70.6,70.0,29.90,ENE,67,3.0,8.0,98,0.00,,,0.00,Wunderground v.1.15,2013-08-28 09:50:00,
2013-08-28 04:55:00,70.6,70.0,29.90,NE,43,3.0,8.0,98,0.00,,,0.00,Wunderground v.1.15,2013-08-28 09:55:00,
2013-08-28 05:05:00,70.5,69.9,29.91,ENE,61,4.0,8.0,98,0.00,,,0.00,Wunderground v.1.15,2013-08-28 10:05:00,
2013-08-28 05:10:00,70.3,69.4,29.91,NE,42,4.0,8.0,97,0.00,,,0.00,Wunderground v.1.15,2013-08-28 10:10:00,
2013-08-28 05:15:00,70.2,69.6,29.91,NE,50,3.0,8.0,98,0.00,,,0.00,Wunderground v.1.15,2013-08-28 10:15:00,
2013-08-28 05:20:00,69.9,69.3,29.91,ENE,65,3.0,3.0,98,0.00,,,0.00,Wunderground v.1.15,2013-08-28 10:20:00,
2013-08-28 05:30:00,69.7,69.1,29.92,ENE,73,3.0,8.0,98,0.00,,,0.00,Wunderground v.1.15,2013-08-28 10:30:00,
2013-08-28 05:35:00,69.6,69.0,29.91,NE,40,3.0,8.0,98,0.00,,,0.00,Wunderground v.1.15,2013-08-28 10:35:00,
2013-08-28 05:45:00,69.6,69.0,29.92,NE,53,2.0,8.0,98,0.00,,,0.00,Wunderground v.1.15,2013-08-28 10:45:00,
2013-08-28 05:50:00,69.7,69.1,29.92,NE,53,2.0,2.0,98,0.00,,,0.00,Wunderground v.1.15,2013-08-28 10:50:00,
2013-08-28 06:00:00,69.7,69.1,29.93,NE,53,1.0,8.0,98,0.00,,,0.00,Wunderground v.1.15,2013-08-28 11:00:00,
2013-08-28 06:05:00,69.6,69.0,29.93,NE,53,1.0,8.0,98,0.00,,,0.00,Wunderground v.1.15,2013-08-28 11:05:00,
2013-08-28 06:10:00,69.6,69.0,29.93,NE,53,1.0,8.0,98,0.00,,,0.00,Wunderground v.1.15,2013-08-28 11:10:00,
2013-08-28 06:15:00,69.6,69.0,29.93,NE,53,1.0,8.0,98,0.00,,,0.00,Wunderground v.1.15,2013-08-28 11:15:00,
2013-08-28 06:25:00,69.7,69.1,29.93,NE,53,1.0,8.0,98,0.00,,,0.00,Wunderground v.1.15,2013-08-28 11:25:00,
2013-08-28 06:30:00,69.7,69.1,29.93,NE,53,1.0,8.0,98,0.00,,,0.00,Wunderground v.1.15,2013-08-28 11:30:00,
2013-08-28 06:35:00,69.8,69.2,29.93,NNE,22,2.0,8.0,98,0.00,,,0.00,Wunderground v.1.15,2013-08-28 11:35:00,
2013-08-28 06:40:00,69.8,69.2,29.94,NNE,32,2.0,2.0,98,0.00,,,0.00,Wunderground v.1.15,2013-08-28 11:40:00,
2013-08-28 06:45:00,69.9,69.3,29.94,NE,43,2.0,8.0,98,0.00,,,0.00,Wunderground v.1.15,2013-08-28 11:45:00,
2013-08-28 06:50:00,69.9,69.3,29.94,NE,38,2.0,8.0,98,0.00,,,0.00,Wunderground v.1.15,2013-08-28 11:50:00,
2013-08-28 06:55:00,69.9,69.3,29.94,NE,46,2.0,8.0,98,0.00,,,0.00,Wunderground v.1.15,2013-08-28 11:55:00,
2013-08-28 07:00:00,70.0,69.4,29.94,NNE,32,2.0,2.0,98,0.00,,,0.00,Wunderground v.1.15,2013-08-28 12:00:00,
2013-08-28 07:10:00,70.2,69.6,29.94,ENE,61,2.0,8.0,98,0.00,,,0.00,Wunderground v.1.15,2013-08-28 12:10:00,
2013-08-28 07:20:00,70.0,69.4,29.94,NNE,13,4.0,8.0,98,0.00,,,0.00,Wunderground v.1.15,2013-08-28 12:20:00,
2013-08-28 07:25:00,70.0,69.4,29.95,NE,34,4.0,8.0,98,0.00,,,0.00,Wunderground v.1.15,2013-08-28 12:25:00,
2013-08-28 07:30:00,69.9,69.3,29.95,NNE,15,4.0,8.0,98,0.00,,,0.00,Wunderground v.1.15,2013-08-28 12:30:00,
2013-08-28 07:35:00,69.8,69.2,29.95,NNE,24,5.0,8.0,98,0.00,,,0.00,Wunderground v.1.15,2013-08-28 12:35:00,
2013-08-28 07:40:00,69.5,68.9,29.95,NNE,19,5.0,5.0,98,0.00,,,0.00,Wunderground v.1.15,2013-08-28 12:40:00,
2013-08-28 07:45:00,69.5,68.9,29.95,NNE,17,4.0,8.0,98,0.00,,,0.00,Wunderground v.1.15,2013-08-28 12:45:00,
2013-08-28 07:55:00,69.6,69.0,29.95,NE,45,3.0,8.0,98,0.00,,,0.00,Wunderground v.1.15,2013-08-28 12:55:00,
2013-08-28 08:00:00,69.7,69.1,29.95,NNE,17,3.0,8.0,98,0.00,,,0.00,Wunderground v.1.15,2013-08-28 13:00:00,
2013-08-28 08:05:00,69.7,69.1,29.95,NNW,338,4.0,8.0,98,0.00,,,0.00,Wunderground v.1.15,2013-08-28 13:05:00,
2013-08-28 08:10:00,69.7,69.1,29.95,North,5,4.0,8.0,98,0.00,,,0.00,Wunderground v.1.15,2013-08-28 13:10:00,
2013-08-28 08:20:00,69.6,69.0,29.95,NNE,21,4.0,8.0,98,0.00,,,0.00,Wunderground v.1.15,2013-08-28 13:20:00,
2013-08-28 08:25:00,69.6,69.0,29.95,NE,41,4.0,8.0,98,0.00,,,0.00,Wunderground v.1.15,2013-08-28 13:25:00,
2013-08-28 08:30:00,69.6,69.0,29.96,ENE,59,4.0,4.0,98,0.00,,,0.00,Wunderground v.1.15,2013-08-28 13:30:00,
2013-08-28 08:35:00,69.5,68.9,29.96,NNE,15,4.0,8.0,98,0.00,,,0.00,Wunderground v.1.15,2013-08-28 13:35:00,
2013-08-28 08:40:00,69.5,68.9,29.95,NNE,12,3.0,8.0,98,0.00,,,0.00,Wunderground v.1.15,2013-08-28 13:40:00,
2013-08-28 08:45:00,69.5,68.9,29.95,NE,46,3.0,8.0,98,0.00,,,0.00,Wunderground v.1.15,2013-08-28 13:45:00,
2013-08-28 08:50:00,69.9,69.3,29.95,NE,44,2.0,8.0,98,0.00,,,0.00,Wunderground v.1.15,2013-08-28 13:50:00,
2013-08-28 09:00:00,70.2,69.6,29.95,NNW,336,2.0,8.0,98,0.00,,,0.00,Wunderground v.1.15,2013-08-28 14:00:00,
2013-08-28 09:05:00,70.4,69.8,29.96,North,355,3.0,8.0,98,0.00,,,0.00,Wunderground v.1.15,2013-08-28 14:05:00,
2013-08-28 09:10:00,70.3,69.7,29.95,NNE,13,3.0,8.0,98,0.00,,,0.00,Wunderground v.1.15,2013-08-28 14:10:00,
2013-08-28 09:15:00,70.2,69.3,29.96,North,355,4.0,8.0,97,0.00,,,0.00,Wunderground v.1.15,2013-08-28 14:15:00,
2013-08-28 09:20:00,70.5,69.9,29.96,NE,56,5.0,5.0,98,0.00,,,0.00,Wunderground v.1.15,2013-08-28 14:20:00,
2013-08-28 09:25:00,70.6,69.7,29.96,NE,40,5.0,8.0,97,0.00,,,0.00,Wunderground v.1.15,2013-08-28 14:25:00,
2013-08-28 09:30:00,71.1,70.2,29.96,NNE,24,4.0,8.0,97,0.00,,,0.00,Wunderground v.1.15,2013-08-28 14:30:00,
2013-08-28 09:35:00,71.4,70.5,29.96,NNE,22,3.0,8.0,97,0.00,,,0.00,Wunderground v.1.15,2013-08-28 14:35:00,
2013-08-28 09:40:00,71.9,71.0,29.95,NNE,13,3.0,3.0,97,0.00,,,0.00,Wunderground v.1.15,2013-08-28 14:40:00,
2013-08-28 09:45:00,72.1,70.9,29.96,NNE,33,3.0,8.0,96,0.00,,,0.00,Wunderground v.1.15,2013-08-28 14:45:00,
2013-08-28 09:50:00,72.2,70.7,29.96,NE,55,5.0,8.0,95,0.00,,,0.00,Wunderground v.1.15,2013-08-28 14:50:00,
2013-08-28 09:55:00,72.5,71.0,29.96,NNE,28,5.0,8.0,95,0.00,,,0.00,Wunderground v.1.15,2013-08-28 14:55:00,
2013-08-28 10:00:00,72.9,71.1,29.97,NE,37,4.0,4.0,94,0.00,,,0.00,Wunderground v.1.15,2013-08-28 15:00:00,
2013-08-28 10:05:00,73.3,71.2,29.96,North,355,5.0,6.0,93,0.00,,,0.00,Wunderground v.1.15,2013-08-28 15:05:00,
2013-08-28 10:10:00,73.8,71.6,29.96,NE,38,5.0,8.0,93,0.00,,,0.00,Wunderground v.1.15,2013-08-28 15:10:00,
2013-08-28 10:20:00,74.0,71.2,29.96,ENE,68,5.0,8.0,91,0.00,,,0.00,Wunderground v.1.15,2013-08-28 15:20:00,
2013-08-28 10:25:00,74.2,71.1,29.96,ENE,73,5.0,8.0,90,0.00,,,0.00,Wunderground v.1.15,2013-08-28 15:25:00,
2013-08-28 10:30:00,74.9,72.1,29.97,NNE,22,4.0,8.0,91,0.00,,,0.00,Wunderground v.1.15,2013-08-28 15:30:00,
2013-08-28 10:35:00,75.1,71.6,29.97,NNE,15,4.0,8.0,89,0.00,,,0.00,Wunderground v.1.15,2013-08-28 15:35:00,
2013-08-28 10:40:00,75.3,71.5,29.97,North,360,5.0,5.0,88,0.00,,,0.00,Wunderground v.1.15,2013-08-28 15:40:00,
2013-08-28 10:45:00,75.6,71.8,29.97,North,5,5.0,6.0,88,0.00,,,0.00,Wunderground v.1.15,2013-08-28 15:45:00,
2013-08-28 10:50:00,76.1,72.3,29.97,ENE,59,5.0,5.0,88,0.00,,,0.00,Wunderground v.1.15,2013-08-28 15:50:00,
2013-08-28 10:55:00,76.4,72.6,29.98,NE,40,5.0,8.0,88,0.00,,,0.00,Wunderground v.1.15,2013-08-28 15:55:00,
2013-08-28 11:00:00,76.5,72.0,29.98,NE,56,5.0,8.0,86,0.00,,,0.00,Wunderground v.1.15,2013-08-28 16:00:00,
2013-08-28 11:05:00,76.5,71.3,29.98,NNE,30,5.0,8.0,84,0.00,,,0.00,Wunderground v.1.15,2013-08-28 16:05:00,
2013-08-28 11:10:00,76.7,71.5,29.98,NE,34,5.0,8.0,84,0.00,,,0.00,Wunderground v.1.15,2013-08-28 16:10:00,
2013-08-28 11:15:00,77.1,71.5,29.98,NE,51,5.0,8.0,83,0.00,,,0.00,Wunderground v.1.15,2013-08-28 16:15:00,
2013-08-28 11:20:00,77.3,71.0,29.98,NE,36,5.0,8.0,81,0.00,,,0.00,Wunderground v.1.15,2013-08-28 16:20:00,
2013-08-28 11:25:00,77.3,71.0,29.98,North,9,5.0,8.0,81,0.00,,,0.00,Wunderground v.1.15,2013-08-28 16:25:00,
2013-08-28 11:30:00,77.7,71.4,29.98,ENE,60,5.0,5.0,81,0.00,,,0.00,Wunderground v.1.15,2013-08-28 16:30:00,
2013-08-28 11:35:00,77.7,71.0,29.98,NW,315,4.0,8.0,80,0.00,,,0.00,Wunderground v.1.15,2013-08-28 16:35:00,
2013-08-28 11:40:00,78.0,71.3,29.97,NE,44,4.0,8.0,80,0.00,,,0.00,Wunderground v.1.15,2013-08-28 16:40:00,
2013-08-28 11:45:00,78.1,71.1,29.97,NNE,28,3.0,8.0,79,0.00,,,0.00,Wunderground v.1.15,2013-08-28 16:45:00,
2013-08-28 11:55:00,78.9,71.5,29.97,ESE,107,3.0,8.0,78,0.00,,,0.00,Wunderground v.1.15,2013-08-28 16:55:00,
2013-08-28 12:00:00,79.2,71.7,29.97,ENE,67,4.0,4.0,78,0.00,,,0.00,Wunderground v.1.15,2013-08-28 17:00:00,
2013-08-28 12:05:00,79.4,71.6,29.97,East,88,4.0,5.0,77,0.00,,,0.00,Wunderground v.1.15,2013-08-28 17:05:00,
2013-08-28 12:10:00,79.3,71.1,29.97,East,98,4.0,8.0,76,0.00,,,0.00,Wunderground v.1.15,2013-08-28 17:10:00,
2013-08-28 12:15:00,79.5,71.3,29.97,ESE,110,4.0,8.0,76,0.00,,,0.00,Wunderground v.1.15,2013-08-28 17:15:00,
2013-08-28 12:20:00,79.6,71.0,29.97,North,355,3.0,8.0,75,0.00,,,0.00,Wunderground v.1.15,2013-08-28 17:20:00,
2013-08-28 12:25:00,79.6,70.6,29.97,SE,130,3.0,8.0,74,0.00,,,0.00,Wunderground v.1.15,2013-08-28 17:25:00,
2013-08-28 12:30:00,79.9,71.3,29.98,SSE,157,3.0,8.0,75,0.00,,,0.00,Wunderground v.1.15,2013-08-28 17:30:00,
2013-08-28 12:35:00,79.3,70.3,29.98,ESE,119,4.0,8.0,74,0.00,,,0.00,Wunderground v.1.15,2013-08-28 17:35:00,
2013-08-28 12:45:00,78.8,70.2,29.98,SE,130,5.0,6.0,75,0.00,,,0.00,Wunderground v.1.15,2013-08-28 17:45:00,
2013-08-28 12:50:00,78.7,70.5,29.99,South,184,5.0,5.0,76,0.00,,,0.00,Wunderground v.1.15,2013-08-28 17:50:00,
2013-08-28 12:55:00,78.9,70.3,29.99,ESE,112,4.0,8.0,75,0.00,,,0.00,Wunderground v.1.15,2013-08-28 17:55:00,
2013-08-28 13:00:00,79.3,70.7,29.99,SSE,150,4.0,8.0,75,0.00,,,0.00,Wunderground v.1.15,2013-08-28 18:00:00,
2013-08-28 13:05:00,79.0,70.0,29.98,East,84,5.0,8.0,74,0.00,,,0.00,Wunderground v.1.15,2013-08-28 18:05:00,
2013-08-28 13:10:00,78.5,69.5,29.98,SSE,159,6.0,6.0,74,0.00,,,0.00,Wunderground v.1.15,2013-08-28 18:10:00,
2013-08-28 13:15:00,78.5,69.9,29.98,SE,130,5.0,8.0,75,0.00,,,0.00,Wunderground v.1.15,2013-08-28 18:15:00,
2013-08-28 13:20:00,78.5,69.5,29.98,ESE,106,4.0,8.0,74,0.00,,,0.00,Wunderground v.1.15,2013-08-28 18:20:00,
2013-08-28 13:25:00,78.6,69.6,29.98,SE,125,5.0,8.0,74,0.00,,,0.00,Wunderground v.1.15,2013-08-28 18:25:00,
2013-08-28 13:30:00,78.9,69.5,29.98,East,95,5.0,5.0,73,0.00,,,0.00,Wunderground v.1.15,2013-08-28 18:30:00,
2013-08-28 13:35:00,79.0,69.2,29.98,ESE,109,5.0,8.0,72,0.00,,,0.00,Wunderground v.1.15,2013-08-28 18:35:00,
2013-08-28 13:40:00,79.0,69.6,29.98,SE,146,4.0,8.0,73,0.00,,,0.00,Wunderground v.1.15,2013-08-28 18:40:00,
2013-08-28 13:45:00,79.1,69.7,29.98,ESE,111,4.0,8.0,73,0.00,,,0.00,Wunderground v.1.15,2013-08-28 18:45:00,
2013-08-28 13:50:00,79.1,69.7,29.98,ESE,113,5.0,8.0,73,0.00,,,0.00,Wunderground v.1.15,2013-08-28 18:50:00,
2013-08-28 13:55:00,79.4,69.6,29.98,SE,135,5.0,8.0,72,0.00,,,0.00,Wunderground v.1.15,2013-08-28 18:55:00,
2013-08-28 14:00:00,80.0,70.6,29.98,East,96,4.0,8.0,73,0.00,,,0.00,Wunderground v.1.15,2013-08-28 19:00:00,
2013-08-28 14:05:00,80.2,70.4,29.98,East,84,4.0,8.0,72,0.00,,,0.00,Wunderground v.1.15,2013-08-28 19:05:00,
2013-08-28 14:10:00,80.2,69.9,29.98,SE,136,4.0,8.0,71,0.00,,,0.00,Wunderground v.1.15,2013-08-28 19:10:00,
2013-08-28 14:15:00,80.0,69.3,29.98,ESE,110,5.0,8.0,70,0.00,,,0.00,Wunderground v.1.15,2013-08-28 19:15:00,
2013-08-28 14:20:00,79.7,69.5,29.98,SE,140,5.0,5.0,71,0.00,,,0.00,Wunderground v.1.15,2013-08-28 19:20:00,
2013-08-28 14:25:00,79.9,69.7,29.97,East,90,4.0,8.0,71,0.00,,,0.00,Wunderground v.1.15,2013-08-28 19:25:00,
2013-08-28 14:30:00,80.3,70.4,29.98,SSE,147,4.0,8.0,72,0.00,,,0.00,Wunderground v.1.15,2013-08-28 19:30:00,
2013-08-28 14:35:00,80.4,69.7,29.98,South,175,4.0,8.0,70,0.00,,,0.00,Wunderground v.1.15,2013-08-28 19:35:00,
2013-08-28 14:40:00,80.5,69.4,29.98,SE,126,4.0,8.0,69,0.00,,,0.00,Wunderground v.1.15,2013-08-28 19:40:00,
2013-08-28 14:45:00,80.8,69.7,29.98,SSE,167,3.0,8.0,69,0.00,,,0.00,Wunderground v.1.15,2013-08-28 19:45:00,
2013-08-28 14:50:00,81.0,69.4,29.98,SE,134,4.0,8.0,68,0.00,,,0.00,Wunderground v.1.15,2013-08-28 19:50:00,
2013-08-28 14:55:00,81.2,69.6,29.98,East,100,4.0,8.0,68,0.00,,,0.00,Wunderground v.1.15,2013-08-28 19:55:00,
2013-08-28 15:00:00,81.2,69.2,29.98,ESE,103,4.0,4.0,67,0.00,,,0.00,Wunderground v.1.15,2013-08-28 20:00:00,
2013-08-28 15:05:00,81.4,69.8,29.98,SE,139,3.0,8.0,68,0.00,,,0.00,Wunderground v.1.15,2013-08-28 20:05:00,
2013-08-28 15:15:00,81.8,70.2,29.98,East,92,2.0,8.0,68,0.00,,,0.00,Wunderground v.1.15,2013-08-28 20:15:00,
2013-08-28 15:20:00,82.0,70.4,29.98,SSE,153,2.0,8.0,68,0.00,,,0.00,Wunderground v.1.15,2013-08-28 20:20:00,
2013-08-28 15:25:00,81.9,69.9,29.97,East,86,3.0,8.0,67,0.00,,,0.00,Wunderground v.1.15,2013-08-28 20:25:00,
2013-08-28 15:30:00,82.0,70.0,29.97,SE,134,4.0,4.0,67,0.00,,,0.00,Wunderground v.1.15,2013-08-28 20:30:00,
2013-08-28 15:35:00,82.1,70.1,29.97,ESE,109,3.0,8.0,67,0.00,,,0.00,Wunderground v.1.15,2013-08-28 20:35:00,
2013-08-28 15:40:00,82.0,70.0,29.97,ESE,109,3.0,3.0,67,0.00,,,0.00,Wunderground v.1.15,2013-08-28 20:40:00,
2013-08-28 15:45:00,82.0,69.5,29.97,ESE,118,4.0,4.0,66,0.00,,,0.00,Wunderground v.1.15,2013-08-28 20:45:00,
2013-08-28 15:50:00,81.8,69.8,29.97,ESE,108,4.0,8.0,67,0.00,,,0.00,Wunderground v.1.15,2013-08-28 20:50:00,
2013-08-28 15:55:00,81.8,69.8,29.97,SE,126,4.0,8.0,67,0.00,,,0.00,Wunderground v.1.15,2013-08-28 20:55:00,
2013-08-28 16:00:00,81.9,70.3,29.97,SE,142,3.0,8.0,68,0.00,,,0.00,Wunderground v.1.15,2013-08-28 21:00:00,
2013-08-28 16:10:00,82.0,70.4,29.98,South,179,4.0,4.0,68,0.00,,,0.00,Wunderground v.1.15,2013-08-28 21:10:00,
2013-08-28 16:15:00,82.0,70.8,29.97,SE,137,4.0,8.0,69,0.00,,,0.00,Wunderground v.1.15,2013-08-28 21:15:00,
2013-08-28 16:20:00,82.2,70.6,29.98,ESE,112,3.0,3.0,68,0.00,,,0.00,Wunderground v.1.15,2013-08-28 21:20:00,
2013-08-28 16:25:00,82.3,70.7,29.98,SE,139,4.0,4.0,68,0.00,,,0.00,Wunderground v.1.15,2013-08-28 21:25:00,
2013-08-28 16:30:00,82.4,71.2,29.97,SSE,155,4.0,4.0,69,0.00,,,0.00,Wunderground v.1.15,2013-08-28 21:30:00,
2013-08-28 16:35:00,82.6,71.8,29.97,South,169,3.0,8.0,70,0.00,,,0.00,Wunderground v.1.15,2013-08-28 21:35:00,
2013-08-28 16:40:00,82.6,71.8,29.98,SSE,153,3.0,8.0,70,0.00,,,0.00,Wunderground v.1.15,2013-08-28 21:40:00,
2013-08-28 16:45:00,82.7,71.9,29.97,East,97,3.0,8.0,70,0.00,,,0.00,Wunderground v.1.15,2013-08-28 21:45:00,
2013-08-28 16:50:00,82.6,71.0,29.97,SE,146,3.0,8.0,68,0.00,,,0.00,Wunderground v.1.15,2013-08-28 21:50:00,
2013-08-28 16:55:00,82.5,70.9,29.97,SSE,147,3.0,8.0,68,0.00,,,0.00,Wunderground v.1.15,2013-08-28 21:55:00,
2013-08-28 17:00:00,82.5,71.3,29.97,SE,146,3.0,3.0,69,0.00,,,0.00,Wunderground v.1.15,2013-08-28 22:00:00,
2013-08-28 17:05:00,82.3,71.1,29.97,SE,136,3.0,8.0,69,0.00,,,0.00,Wunderground v.1.15,2013-08-28 22:05:00,
2013-08-28 17:10:00,82.1,70.9,29.97,East,88,2.0,8.0,69,0.00,,,0.00,Wunderground v.1.15,2013-08-28 22:10:00,
2013-08-28 17:15:00,82.0,70.8,29.97,East,84,2.0,8.0,69,0.00,,,0.00,Wunderground v.1.15,2013-08-28 22:15:00,
2013-08-28 17:20:00,82.0,70.8,29.97,SE,142,2.0,8.0,69,0.00,,,0.00,Wunderground v.1.15,2013-08-28 22:20:00,
2013-08-28 17:25:00,82.1,70.9,29.97,SSE,159,2.0,8.0,69,0.00,,,0.00,Wunderground v.1.15,2013-08-28 22:25:00,
2013-08-28 17:30:00,82.0,70.8,29.98,SSE,148,2.0,8.0,69,0.00,,,0.00,Wunderground v.1.15,2013-08-28 22:30:00,
2013-08-28 17:35:00,82.0,70.4,29.98,SSE,159,2.0,8.0,68,0.00,,,0.00,Wunderground v.1.15,2013-08-28 22:35:00,
2013-08-28 17:40:00,82.1,71.3,29.98,SSW,192,2.0,2.0,70,0.00,,,0.00,Wunderground v.1.15,2013-08-28 22:40:00,
2013-08-28 17:45:00,82.0,70.8,29.98,South,175,2.0,8.0,69,0.00,,,0.00,Wunderground v.1.15,2013-08-28 22:45:00,
2013-08-28 17:55:00,81.9,71.2,29.98,SSE,153,1.0,8.0,70,0.00,,,0.00,Wunderground v.1.15,2013-08-28 22:55:00,
2013-08-28 18:00:00,82.1,71.3,29.98,SSE,153,1.0,8.0,70,0.00,,,0.00,Wunderground v.1.15,2013-08-28 23:00:00,
2013-08-28 18:05:00,82.1,71.3,29.98,South,183,1.0,8.0,70,0.00,,,0.00,Wunderground v.1.15,2013-08-28 23:05:00,
2013-08-28 18:10:00,82.0,72.1,29.98,South,183,1.0,8.0,72,0.00,,,0.00,Wunderground v.1.15,2013-08-28 23:10:00,
2013-08-28 18:20:00,81.4,72.7,29.98,South,183,1.0,8.0,75,0.00,,,0.00,Wunderground v.1.15,2013-08-28 23:20:00,
2013-08-28 18:25:00,81.1,72.4,29.98,South,183,1.0,8.0,75,0.00,,,0.00,Wunderground v.1.15,2013-08-28 23:25:00,
2013-08-28 18:30:00,80.7,72.4,29.98,South,183,1.0,8.0,76,0.00,,,0.00,Wunderground v.1.15,2013-08-28 23:30:00,
2013-08-28 18:40:00,80.2,72.7,29.98,South,183,1.0,8.0,78,0.00,,,0.00,Wunderground v.1.15,2013-08-28 23:40:00,
2013-08-28 18:45:00,79.6,72.1,29.99,South,183,1.0,8.0,78,0.00,,,0.00,Wunderground v.1.15,2013-08-28 23:45:00,
2013-08-28 18:50:00,78.9,72.2,29.99,South,183,1.0,1.0,80,0.00,,,0.00,Wunderground v.1.15,2013-08-28 23:50:00,
2013-08-28 18:55:00,78.2,71.5,29.98,South,183,0.0,8.0,80,0.00,,,0.00,Wunderground v.1.15,2013-08-28 23:55:00,
2013-08-28 19:00:00,77.7,71.4,29.98,South,183,0.0,8.0,81,0.00,,,0.00,Wunderground v.1.15,2013-08-29 00:00:00,
2013-08-28 19:10:00,77.1,71.2,29.98,South,183,0.0,8.0,82,0.00,,,0.00,Wunderground v.1.15,2013-08-29 00:10:00,
2013-08-28 19:15:00,76.6,71.0,29.98,South,183,0.0,8.0,83,0.00,,,0.00,Wunderground v.1.15,2013-08-29 00:15:00,
2013-08-28 19:25:00,75.7,70.5,29.98,South,183,1.0,8.0,84,0.00,,,0.00,Wunderground v.1.15,2013-08-29 00:25:00,
2013-08-28 19:35:00,74.8,70.0,29.99,South,183,0.0,8.0,85,0.00,,,0.00,Wunderground v.1.15,2013-08-29 00:35:00,
2013-08-28 19:45:00,74.1,70.0,30.00,South,183,1.0,8.0,87,0.00,,,0.00,Wunderground v.1.15,2013-08-29 00:45:00,
2013-08-28 19:55:00,73.5,69.7,30.00,South,183,0.0,8.0,88,0.00,,,0.00,Wunderground v.1.15,2013-08-29 00:55:00,
2013-08-28 20:00:00,73.3,69.5,30.00,South,183,0.0,8.0,88,0.00,,,0.00,Wunderground v.1.15,2013-08-29 01:00:00,
2013-08-28 20:10:00,73.3,69.9,30.00,South,183,0.0,8.0,89,0.00,,,0.00,Wunderground v.1.15,2013-08-29 01:10:00,
2013-08-28 20:15:00,73.1,69.7,30.00,South,183,0.0,8.0,89,0.00,,,0.00,Wunderground v.1.15,2013-08-29 01:15:00,
2013-08-28 20:20:00,73.0,69.9,30.00,South,183,0.0,8.0,90,0.00,,,0.00,Wunderground v.1.15,2013-08-29 01:20:00,
2013-08-28 20:25:00,72.8,69.7,30.00,South,183,0.0,8.0,90,0.00,,,0.00,Wunderground v.1.15,2013-08-29 01:25:00,
2013-08-28 20:30:00,72.8,70.0,30.00,South,183,0.0,8.0,91,0.00,,,0.00,Wunderground v.1.15,2013-08-29 01:30:00,
2013-08-28 20:35:00,72.8,70.0,30.00,South,183,0.0,8.0,91,0.00,,,0.00,Wunderground v.1.15,2013-08-29 01:35:00,
2013-08-28 20:40:00,72.6,69.8,30.00,South,183,0.0,8.0,91,0.00,,,0.00,Wunderground v.1.15,2013-08-29 01:40:00,
2013-08-28 20:45:00,72.4,69.6,30.00,South,183,0.0,8.0,91,0.00,,,0.00,Wunderground v.1.15,2013-08-29 01:45:00,
2013-08-28 20:50:00,72.3,69.5,30.00,South,183,0.0,8.0,91,0.00,,,0.00,Wunderground v.1.15,2013-08-29 01:50:00,
2013-08-28 20:55:00,72.3,69.8,30.00,South,183,0.0,8.0,92,0.00,,,0.00,Wunderground v.1.15,2013-08-29 01:55:00,
2013-08-28 21:00:00,72.4,69.9,30.00,South,183,0.0,8.0,92,0.00,,,0.00,Wunderground v.1.15,2013-08-29 02:00:00,
2013-08-28 21:05:00,72.3,69.8,30.00,South,183,0.0,8.0,92,0.00,,,0.00,Wunderground v.1.15,2013-08-29 02:05:00,
2013-08-28 21:15:00,72.0,69.5,30.01,South,183,0.0,8.0,92,0.00,,,0.00,Wunderground v.1.15,2013-08-29 02:15:00,
2013-08-28 21:20:00,72.1,70.0,30.01,South,183,0.0,8.0,93,0.00,,,0.00,Wunderground v.1.15,2013-08-29 02:20:00,
2013-08-28 21:25:00,72.1,69.6,30.01,South,183,0.0,8.0,92,0.00,,,0.00,Wunderground v.1.15,2013-08-29 02:25:00,
2013-08-28 21:30:00,71.9,69.4,30.01,South,183,0.0,8.0,92,0.00,,,0.00,Wunderground v.1.15,2013-08-29 02:30:00,
2013-08-28 21:40:00,71.7,69.3,30.01,South,183,0.0,8.0,92,0.00,,,0.00,Wunderground v.1.15,2013-08-29 02:40:00,
2013-08-28 21:45:00,71.6,69.2,30.01,South,183,1.0,8.0,92,0.00,,,0.00,Wunderground v.1.15,2013-08-29 02:45:00,
2013-08-28 21:50:00,71.4,69.3,30.01,South,183,0.0,8.0,93,0.00,,,0.00,Wunderground v.1.15,2013-08-29 02:50:00,
2013-08-28 21:55:00,71.4,69.3,30.01,South,183,0.0,8.0,93,0.00,,,0.00,Wunderground v.1.15,2013-08-29 02:55:00,
2013-08-28 22:00:00,71.5,69.4,30.01,South,183,0.0,8.0,93,0.00,,,0.00,Wunderground v.1.15,2013-08-29 03:00:00,
2013-08-28 22:05:00,71.5,69.4,30.00,South,183,0.0,8.0,93,0.00,,,0.00,Wunderground v.1.15,2013-08-29 03:05:00,
2013-08-28 22:15:00,71.2,69.1,30.00,South,183,0.0,8.0,93,0.00,,,0.00,Wunderground v.1.15,2013-08-29 03:15:00,
2013-08-28 22:20:00,71.3,69.2,30.00,South,183,0.0,8.0,93,0.00,,,0.00,Wunderground v.1.15,2013-08-29 03:20:00,
2013-08-28 22:25:00,71.4,69.3,30.00,South,183,0.0,8.0,93,0.00,,,0.00,Wunderground v.1.15,2013-08-29 03:25:00,
2013-08-28 22:30:00,71.5,69.7,30.00,South,183,0.0,8.0,94,0.00,,,0.00,Wunderground v.1.15,2013-08-29 03:30:00,
2013-08-28 22:35:00,71.2,69.1,30.00,South,183,0.0,8.0,93,0.00,,,0.00,Wunderground v.1.15,2013-08-29 03:35:00,
2013-08-28 22:40:00,71.1,69.0,30.00,South,183,0.0,8.0,93,0.00,,,0.00,Wunderground v.1.15,2013-08-29 03:40:00,
2013-08-28 22:45:00,71.0,68.9,30.00,South,183,0.0,8.0,93,0.00,,,0.00,Wunderground v.1.15,2013-08-29 03:45:00,
2013-08-28 22:50:00,71.0,69.2,30.00,South,183,0.0,8.0,94,0.00,,,0.00,Wunderground v.1.15,2013-08-29 03:50:00,
2013-08-28 22:55:00,71.1,69.3,30.00,South,183,0.0,8.0,94,0.00,,,0.00,Wunderground v.1.15,2013-08-29 03:55:00,
2013-08-28 23:00:00,70.9,68.8,29.99,South,183,0.0,8.0,93,0.00,,,0.00,Wunderground v.1.15,2013-08-29 04:00:00,
2013-08-28 23:05:00,70.6,68.8,29.99,South,183,0.0,8.0,94,0.00,,,0.00,Wunderground v.1.15,2013-08-29 04:05:00,
2013-08-28 23:10:00,70.6,68.8,29.99,South,183,0.0,8.0,94,0.00,,,0.00,Wunderground v.1.15,2013-08-29 04:10:00,
2013-08-28 23:15:00,70.6,68.8,29.99,South,183,0.0,8.0,94,0.00,,,0.00,Wunderground v.1.15,2013-08-29 04:15:00,
2013-08-28 23:25:00,70.0,68.2,29.99,South,183,0.0,8.0,94,0.00,,,0.00,Wunderground v.1.15,2013-08-29 04:25:00,
2013-08-28 23:35:00,69.9,68.1,30.00,South,183,0.0,8.0,94,0.00,,,0.00,Wunderground v.1.15,2013-08-29 04:35:00,
2013-08-28 23:40:00,69.9,68.1,30.00,South,183,0.0,8.0,94,0.00,,,0.00,Wunderground v.1.15,2013-08-29 04:40:00,
2013-08-28 23:45:00,69.8,68.0,30.00,South,183,0.0,8.0,94,0.00,,,0.00,Wunderground v.1.15,2013-08-29 04:45:00,
2013-08-28 23:50:00,69.9,68.1,29.99,South,183,0.0,8.0,94,0.00,,,0.00,Wunderground v.1.15,2013-08-29 04:50:00,